sensor_id;sensor_type;location;lat;lon;timestamp;P1;durP1;ratioP1;P2;durP2;ratioP2
7493;SDS011;3788;49.902;8.590;2023-06-19T00:01:55;5.73;;;5.27;;
7493;SDS011;3788;49.902;8.590;2023-06-19T00:04:22;5.73;;;5.33;;
7493;SDS011;3788;49.902;8.590;2023-06-19T00:06:50;6.50;;;6.00;;
7493;SDS011;3788;49.902;8.590;2023-06-19T00:09:16;6.13;;;5.63;;
7493;SDS011;3788;49.902;8.590;2023-06-19T00:11:43;6.53;;;6.03;;
7493;SDS011;3788;49.902;8.590;2023-06-19T00:14:10;6.77;;;6.17;;
7493;SDS011;3788;49.902;8.590;2023-06-19T00:16:37;6.40;;;5.80;;
7493;SDS011;3788;49.902;8.590;2023-06-19T00:19:05;6.47;;;5.97;;
7493;SDS011;3788;49.902;8.590;2023-06-19T00:21:31;6.50;;;6.00;;
7493;SDS011;3788;49.902;8.590;2023-06-19T00:23:59;6.80;;;6.20;;
7493;SDS011;3788;49.902;8.590;2023-06-19T00:26:27;6.17;;;5.63;;
7493;SDS011;3788;49.902;8.590;2023-06-19T00:28:53;6.53;;;6.00;;
7493;SDS011;3788;49.902;8.590;2023-06-19T00:31:20;5.97;;;5.50;;
7493;SDS011;3788;49.902;8.590;2023-06-19T00:33:47;6.10;;;5.50;;
7493;SDS011;3788;49.902;8.590;2023-06-19T00:36:14;5.47;;;5.07;;
7493;SDS011;3788;49.902;8.590;2023-06-19T00:38:45;5.77;;;5.37;;
7493;SDS011;3788;49.902;8.590;2023-06-19T00:41:13;5.30;;;4.90;;
7493;SDS011;3788;49.902;8.590;2023-06-19T00:43:41;5.90;;;5.40;;
7493;SDS011;3788;49.902;8.590;2023-06-19T00:46:08;5.70;;;5.30;;
7493;SDS011;3788;49.902;8.590;2023-06-19T00:48:36;5.47;;;5.00;;
7493;SDS011;3788;49.902;8.590;2023-06-19T00:51:03;5.20;;;4.80;;
7493;SDS011;3788;49.902;8.590;2023-06-19T00:53:30;5.80;;;5.20;;
7493;SDS011;3788;49.902;8.590;2023-06-19T00:55:59;5.50;;;5.10;;
7493;SDS011;3788;49.902;8.590;2023-06-19T00:58:28;5.20;;;4.80;;
7493;SDS011;3788;49.902;8.590;2023-06-19T01:00:54;5.87;;;5.37;;
7493;SDS011;3788;49.902;8.590;2023-06-19T01:03:22;6.50;;;5.90;;
7493;SDS011;3788;49.902;8.590;2023-06-19T01:05:51;6.50;;;5.93;;
7493;SDS011;3788;49.902;8.590;2023-06-19T01:08:22;6.60;;;6.10;;
7493;SDS011;3788;49.902;8.590;2023-06-19T01:11:06;7.27;;;6.67;;
7493;SDS011;3788;49.902;8.590;2023-06-19T01:13:39;7.13;;;6.53;;
7493;SDS011;3788;49.902;8.590;2023-06-19T01:16:10;7.23;;;6.63;;
7493;SDS011;3788;49.902;8.590;2023-06-19T01:18:38;6.63;;;6.13;;
7493;SDS011;3788;49.902;8.590;2023-06-19T01:21:09;7.00;;;6.40;;
7493;SDS011;3788;49.902;8.590;2023-06-19T01:23:38;6.63;;;6.13;;
7493;SDS011;3788;49.902;8.590;2023-06-19T01:26:05;6.97;;;6.37;;
7493;SDS011;3788;49.902;8.590;2023-06-19T01:28:33;6.73;;;6.23;;
7493;SDS011;3788;49.902;8.590;2023-06-19T01:31:01;6.97;;;6.37;;
7493;SDS011;3788;49.902;8.590;2023-06-19T01:33:29;6.23;;;5.73;;
7493;SDS011;3788;49.902;8.590;2023-06-19T01:35:57;6.57;;;6.07;;
7493;SDS011;3788;49.902;8.590;2023-06-19T01:38:26;6.13;;;5.53;;
7493;SDS011;3788;49.902;8.590;2023-06-19T01:40:55;6.10;;;5.60;;
7493;SDS011;3788;49.902;8.590;2023-06-19T01:43:23;6.57;;;5.90;;
7493;SDS011;3788;49.902;8.590;2023-06-19T01:45:50;6.40;;;5.80;;
7493;SDS011;3788;49.902;8.590;2023-06-19T01:48:18;6.17;;;5.60;;
7493;SDS011;3788;49.902;8.590;2023-06-19T01:50:45;6.70;;;6.00;;
7493;SDS011;3788;49.902;8.590;2023-06-19T01:53:12;7.37;;;6.77;;
7493;SDS011;3788;49.902;8.590;2023-06-19T01:55:38;7.87;;;7.17;;
7493;SDS011;3788;49.902;8.590;2023-06-19T01:58:06;7.33;;;6.83;;
7493;SDS011;3788;49.902;8.590;2023-06-19T02:00:33;7.10;;;6.47;;
7493;SDS011;3788;49.902;8.590;2023-06-19T02:03:00;7.67;;;6.97;;
7493;SDS011;3788;49.902;8.590;2023-06-19T02:05:27;8.33;;;7.60;;
7493;SDS011;3788;49.902;8.590;2023-06-19T02:07:53;8.67;;;7.83;;
7493;SDS011;3788;49.902;8.590;2023-06-19T02:10:20;7.73;;;7.03;;
7493;SDS011;3788;49.902;8.590;2023-06-19T02:12:47;8.93;;;7.67;;
7493;SDS011;3788;49.902;8.590;2023-06-19T02:15:15;8.30;;;7.50;;
7493;SDS011;3788;49.902;8.590;2023-06-19T02:17:41;7.90;;;7.10;;
7493;SDS011;3788;49.902;8.590;2023-06-19T02:20:09;7.97;;;7.27;;
7493;SDS011;3788;49.902;8.590;2023-06-19T02:22:37;7.87;;;7.00;;
7493;SDS011;3788;49.902;8.590;2023-06-19T02:25:04;7.87;;;7.17;;
7493;SDS011;3788;49.902;8.590;2023-06-19T02:27:31;7.87;;;7.17;;
7493;SDS011;3788;49.902;8.590;2023-06-19T02:29:57;7.40;;;6.80;;
7493;SDS011;3788;49.902;8.590;2023-06-19T02:32:25;7.37;;;6.73;;
7493;SDS011;3788;49.902;8.590;2023-06-19T02:34:52;7.20;;;6.60;;
7493;SDS011;3788;49.902;8.590;2023-06-19T02:37:19;7.83;;;7.13;;
7493;SDS011;3788;49.902;8.590;2023-06-19T02:39:46;6.80;;;6.30;;
7493;SDS011;3788;49.902;8.590;2023-06-19T02:42:12;7.37;;;6.67;;
7493;SDS011;3788;49.902;8.590;2023-06-19T02:44:39;6.73;;;6.10;;
7493;SDS011;3788;49.902;8.590;2023-06-19T02:47:07;6.43;;;5.93;;
7493;SDS011;3788;49.902;8.590;2023-06-19T02:49:35;7.03;;;6.43;;
7493;SDS011;3788;49.902;8.590;2023-06-19T02:52:03;7.03;;;6.43;;
7493;SDS011;3788;49.902;8.590;2023-06-19T02:54:31;7.43;;;6.73;;
7493;SDS011;3788;49.902;8.590;2023-06-19T02:56:57;7.27;;;6.67;;
7493;SDS011;3788;49.902;8.590;2023-06-19T02:59:25;6.80;;;6.30;;
7493;SDS011;3788;49.902;8.590;2023-06-19T03:01:51;7.00;;;6.40;;
7493;SDS011;3788;49.902;8.590;2023-06-19T03:04:18;7.33;;;6.73;;
7493;SDS011;3788;49.902;8.590;2023-06-19T03:06:46;7.70;;;7.00;;
7493;SDS011;3788;49.902;8.590;2023-06-19T03:09:13;6.70;;;6.17;;
7493;SDS011;3788;49.902;8.590;2023-06-19T03:11:40;7.27;;;6.67;;
7493;SDS011;3788;49.902;8.590;2023-06-19T03:14:07;7.50;;;6.90;;
7493;SDS011;3788;49.902;8.590;2023-06-19T03:16:34;8.53;;;7.73;;
7493;SDS011;3788;49.902;8.590;2023-06-19T03:19:01;8.47;;;7.40;;
7493;SDS011;3788;49.902;8.590;2023-06-19T03:21:28;7.77;;;7.17;;
7493;SDS011;3788;49.902;8.590;2023-06-19T03:23:56;7.23;;;6.63;;
7493;SDS011;3788;49.902;8.590;2023-06-19T03:26:23;7.27;;;6.67;;
7493;SDS011;3788;49.902;8.590;2023-06-19T03:28:50;7.17;;;6.57;;
7493;SDS011;3788;49.902;8.590;2023-06-19T03:31:17;7.37;;;6.77;;
7493;SDS011;3788;49.902;8.590;2023-06-19T03:33:44;7.33;;;6.63;;
7493;SDS011;3788;49.902;8.590;2023-06-19T03:36:11;7.37;;;6.67;;
7493;SDS011;3788;49.902;8.590;2023-06-19T03:38:38;7.73;;;7.03;;
7493;SDS011;3788;49.902;8.590;2023-06-19T03:41:06;6.90;;;6.40;;
7493;SDS011;3788;49.902;8.590;2023-06-19T03:43:33;7.17;;;6.57;;
7493;SDS011;3788;49.902;8.590;2023-06-19T03:45:59;7.30;;;6.63;;
7493;SDS011;3788;49.902;8.590;2023-06-19T03:48:26;6.33;;;5.83;;
7493;SDS011;3788;49.902;8.590;2023-06-19T03:50:53;7.57;;;6.87;;
7493;SDS011;3788;49.902;8.590;2023-06-19T03:53:20;7.63;;;6.93;;
7493;SDS011;3788;49.902;8.590;2023-06-19T03:55:47;7.23;;;6.63;;
7493;SDS011;3788;49.902;8.590;2023-06-19T03:58:15;7.13;;;6.40;;
7493;SDS011;3788;49.902;8.590;2023-06-19T04:00:42;7.90;;;7.20;;
7493;SDS011;3788;49.902;8.590;2023-06-19T04:03:09;7.73;;;7.13;;
7493;SDS011;3788;49.902;8.590;2023-06-19T04:05:35;8.00;;;7.20;;
7493;SDS011;3788;49.902;8.590;2023-06-19T04:08:03;7.40;;;6.80;;
7493;SDS011;3788;49.902;8.590;2023-06-19T04:10:30;7.17;;;6.57;;
7493;SDS011;3788;49.902;8.590;2023-06-19T04:12:57;8.07;;;7.37;;
7493;SDS011;3788;49.902;8.590;2023-06-19T04:15:25;7.70;;;7.00;;
7493;SDS011;3788;49.902;8.590;2023-06-19T04:17:52;7.50;;;6.90;;
7493;SDS011;3788;49.902;8.590;2023-06-19T04:20:18;6.70;;;6.20;;
7493;SDS011;3788;49.902;8.590;2023-06-19T04:22:45;6.63;;;6.03;;
7493;SDS011;3788;49.902;8.590;2023-06-19T04:25:12;6.30;;;5.80;;
7493;SDS011;3788;49.902;8.590;2023-06-19T04:27:38;5.73;;;5.23;;
7493;SDS011;3788;49.902;8.590;2023-06-19T04:30:05;5.80;;;5.23;;
7493;SDS011;3788;49.902;8.590;2023-06-19T04:32:34;7.00;;;6.27;;
7493;SDS011;3788;49.902;8.590;2023-06-19T04:35:01;6.13;;;5.63;;
7493;SDS011;3788;49.902;8.590;2023-06-19T04:37:28;6.03;;;5.43;;
7493;SDS011;3788;49.902;8.590;2023-06-19T04:39:54;6.07;;;5.57;;
7493;SDS011;3788;49.902;8.590;2023-06-19T04:42:22;5.97;;;5.47;;
7493;SDS011;3788;49.902;8.590;2023-06-19T04:44:48;5.77;;;5.23;;
7493;SDS011;3788;49.902;8.590;2023-06-19T04:47:16;5.77;;;5.27;;
7493;SDS011;3788;49.902;8.590;2023-06-19T04:49:45;5.60;;;5.10;;
7493;SDS011;3788;49.902;8.590;2023-06-19T04:52:12;5.53;;;5.13;;
7493;SDS011;3788;49.902;8.590;2023-06-19T04:54:39;5.47;;;4.97;;
7493;SDS011;3788;49.902;8.590;2023-06-19T04:57:06;5.20;;;4.80;;
7493;SDS011;3788;49.902;8.590;2023-06-19T04:59:32;5.87;;;5.37;;
7493;SDS011;3788;49.902;8.590;2023-06-19T05:01:59;5.80;;;5.20;;
7493;SDS011;3788;49.902;8.590;2023-06-19T05:04:26;5.23;;;4.73;;
7493;SDS011;3788;49.902;8.590;2023-06-19T05:06:54;4.40;;;4.10;;
7493;SDS011;3788;49.902;8.590;2023-06-19T05:09:23;4.37;;;4.00;;
7493;SDS011;3788;49.902;8.590;2023-06-19T05:11:50;3.43;;;3.13;;
7493;SDS011;3788;49.902;8.590;2023-06-19T05:14:17;2.80;;;2.60;;
7493;SDS011;3788;49.902;8.590;2023-06-19T05:16:43;3.47;;;3.17;;
7493;SDS011;3788;49.902;8.590;2023-06-19T05:19:10;2.87;;;2.67;;
7493;SDS011;3788;49.902;8.590;2023-06-19T05:21:37;3.17;;;2.97;;
7493;SDS011;3788;49.902;8.590;2023-06-19T05:24:05;2.83;;;2.60;;
7493;SDS011;3788;49.902;8.590;2023-06-19T05:26:32;2.87;;;2.67;;
7493;SDS011;3788;49.902;8.590;2023-06-19T05:28:59;3.17;;;2.93;;
7493;SDS011;3788;49.902;8.590;2023-06-19T05:31:25;4.03;;;3.20;;
7493;SDS011;3788;49.902;8.590;2023-06-19T05:33:52;2.87;;;2.60;;
7493;SDS011;3788;49.902;8.590;2023-06-19T05:36:18;2.97;;;2.77;;
7493;SDS011;3788;49.902;8.590;2023-06-19T05:38:45;3.80;;;3.17;;
7493;SDS011;3788;49.902;8.590;2023-06-19T05:41:13;3.10;;;2.90;;
7493;SDS011;3788;49.902;8.590;2023-06-19T05:43:42;3.17;;;2.87;;
7493;SDS011;3788;49.902;8.590;2023-06-19T05:46:09;3.07;;;2.60;;
7493;SDS011;3788;49.902;8.590;2023-06-19T05:48:36;3.47;;;2.97;;
7493;SDS011;3788;49.902;8.590;2023-06-19T05:51:03;5.13;;;2.87;;
7493;SDS011;3788;49.902;8.590;2023-06-19T05:53:30;3.43;;;2.97;;
7493;SDS011;3788;49.902;8.590;2023-06-19T05:55:57;4.03;;;3.53;;
7493;SDS011;3788;49.902;8.590;2023-06-19T05:58:25;3.80;;;3.03;;
7493;SDS011;3788;49.902;8.590;2023-06-19T06:00:52;3.50;;;3.20;;
7493;SDS011;3788;49.902;8.590;2023-06-19T06:03:22;3.87;;;3.20;;
7493;SDS011;3788;49.902;8.590;2023-06-19T06:05:49;3.63;;;3.40;;
7493;SDS011;3788;49.902;8.590;2023-06-19T06:08:16;3.93;;;3.00;;
7493;SDS011;3788;49.902;8.590;2023-06-19T06:10:43;3.63;;;3.13;;
7493;SDS011;3788;49.902;8.590;2023-06-19T06:13:09;3.73;;;3.13;;
7493;SDS011;3788;49.902;8.590;2023-06-19T06:15:37;3.67;;;3.37;;
7493;SDS011;3788;49.902;8.590;2023-06-19T06:18:04;3.47;;;3.17;;
7493;SDS011;3788;49.902;8.590;2023-06-19T06:20:31;4.47;;;3.50;;
7493;SDS011;3788;49.902;8.590;2023-06-19T06:22:57;3.67;;;3.37;;
7493;SDS011;3788;49.902;8.590;2023-06-19T06:25:25;4.00;;;3.20;;
7493;SDS011;3788;49.902;8.590;2023-06-19T06:27:52;3.77;;;3.30;;
7493;SDS011;3788;49.902;8.590;2023-06-19T06:30:18;3.70;;;3.40;;
7493;SDS011;3788;49.902;8.590;2023-06-19T06:32:46;3.70;;;3.40;;
7493;SDS011;3788;49.902;8.590;2023-06-19T06:35:13;3.60;;;3.30;;
7493;SDS011;3788;49.902;8.590;2023-06-19T06:37:40;4.17;;;3.87;;
7493;SDS011;3788;49.902;8.590;2023-06-19T06:40:07;3.93;;;3.30;;
7493;SDS011;3788;49.902;8.590;2023-06-19T06:42:36;4.83;;;3.70;;
7493;SDS011;3788;49.902;8.590;2023-06-19T06:45:03;4.53;;;3.57;;
7493;SDS011;3788;49.902;8.590;2023-06-19T06:47:30;4.93;;;3.70;;
7493;SDS011;3788;49.902;8.590;2023-06-19T06:49:58;3.97;;;3.67;;
7493;SDS011;3788;49.902;8.590;2023-06-19T06:52:25;4.40;;;4.00;;
7493;SDS011;3788;49.902;8.590;2023-06-19T06:54:52;4.00;;;3.57;;
7493;SDS011;3788;49.902;8.590;2023-06-19T06:57:19;3.70;;;3.40;;
7493;SDS011;3788;49.902;8.590;2023-06-19T06:59:46;3.53;;;3.20;;
7493;SDS011;3788;49.902;8.590;2023-06-19T07:02:12;4.27;;;3.30;;
7493;SDS011;3788;49.902;8.590;2023-06-19T07:04:39;3.43;;;3.13;;
7493;SDS011;3788;49.902;8.590;2023-06-19T07:07:07;3.63;;;3.33;;
7493;SDS011;3788;49.902;8.590;2023-06-19T07:09:34;3.53;;;3.20;;
7493;SDS011;3788;49.902;8.590;2023-06-19T07:12:00;6.37;;;3.37;;
7493;SDS011;3788;49.902;8.590;2023-06-19T07:14:29;3.57;;;3.27;;
7493;SDS011;3788;49.902;8.590;2023-06-19T07:16:56;3.40;;;3.10;;
7493;SDS011;3788;49.902;8.590;2023-06-19T07:19:22;6.60;;;4.00;;
7493;SDS011;3788;49.902;8.590;2023-06-19T07:21:49;3.93;;;3.63;;
7493;SDS011;3788;49.902;8.590;2023-06-19T07:24:17;3.33;;;3.13;;
7493;SDS011;3788;49.902;8.590;2023-06-19T07:26:45;5.03;;;3.87;;
7493;SDS011;3788;49.902;8.590;2023-06-19T07:29:12;4.67;;;4.20;;
7493;SDS011;3788;49.902;8.590;2023-06-19T07:31:39;4.30;;;4.00;;
7493;SDS011;3788;49.902;8.590;2023-06-19T07:34:07;3.90;;;3.60;;
7493;SDS011;3788;49.902;8.590;2023-06-19T07:36:34;3.90;;;3.60;;
7493;SDS011;3788;49.902;8.590;2023-06-19T07:39:00;3.97;;;3.67;;
7493;SDS011;3788;49.902;8.590;2023-06-19T07:41:29;4.20;;;3.80;;
7493;SDS011;3788;49.902;8.590;2023-06-19T07:43:55;4.20;;;3.50;;
7493;SDS011;3788;49.902;8.590;2023-06-19T07:46:22;4.43;;;4.03;;
7493;SDS011;3788;49.902;8.590;2023-06-19T07:48:49;3.83;;;3.53;;
7493;SDS011;3788;49.902;8.590;2023-06-19T07:51:16;3.77;;;3.50;;
7493;SDS011;3788;49.902;8.590;2023-06-19T07:53:42;4.87;;;3.83;;
7493;SDS011;3788;49.902;8.590;2023-06-19T07:56:09;4.37;;;4.03;;
7493;SDS011;3788;49.902;8.590;2023-06-19T07:58:39;4.40;;;4.00;;
7493;SDS011;3788;49.902;8.590;2023-06-19T08:01:06;3.93;;;3.63;;
7493;SDS011;3788;49.902;8.590;2023-06-19T08:03:33;4.97;;;3.87;;
7493;SDS011;3788;49.902;8.590;2023-06-19T08:06:01;3.80;;;3.50;;
7493;SDS011;3788;49.902;8.590;2023-06-19T08:08:28;4.37;;;4.03;;
7493;SDS011;3788;49.902;8.590;2023-06-19T08:10:54;5.33;;;3.43;;
7493;SDS011;3788;49.902;8.590;2023-06-19T08:13:21;3.90;;;3.60;;
7493;SDS011;3788;49.902;8.590;2023-06-19T08:15:49;4.83;;;3.93;;
7493;SDS011;3788;49.902;8.590;2023-06-19T08:18:16;4.53;;;4.13;;
7493;SDS011;3788;49.902;8.590;2023-06-19T08:20:43;4.20;;;3.80;;
7493;SDS011;3788;49.902;8.590;2023-06-19T08:23:10;4.00;;;3.70;;
7493;SDS011;3788;49.902;8.590;2023-06-19T08:25:37;4.03;;;3.73;;
7493;SDS011;3788;49.902;8.590;2023-06-19T08:28:05;4.67;;;3.93;;
7493;SDS011;3788;49.902;8.590;2023-06-19T08:30:34;4.40;;;4.00;;
7493;SDS011;3788;49.902;8.590;2023-06-19T08:33:03;3.90;;;3.60;;
7493;SDS011;3788;49.902;8.590;2023-06-19T08:35:29;3.93;;;3.63;;
7493;SDS011;3788;49.902;8.590;2023-06-19T08:37:56;4.77;;;3.70;;
7493;SDS011;3788;49.902;8.590;2023-06-19T08:40:23;4.23;;;3.80;;
7493;SDS011;3788;49.902;8.590;2023-06-19T08:42:50;4.23;;;3.90;;
7493;SDS011;3788;49.902;8.590;2023-06-19T08:45:17;4.40;;;4.10;;
7493;SDS011;3788;49.902;8.590;2023-06-19T08:47:46;3.87;;;3.57;;
7493;SDS011;3788;49.902;8.590;2023-06-19T08:50:15;4.83;;;3.80;;
7493;SDS011;3788;49.902;8.590;2023-06-19T08:52:42;4.10;;;3.70;;
7493;SDS011;3788;49.902;8.590;2023-06-19T08:55:10;4.33;;;3.70;;
7493;SDS011;3788;49.902;8.590;2023-06-19T08:57:37;4.23;;;3.93;;
7493;SDS011;3788;49.902;8.590;2023-06-19T09:00:05;4.30;;;3.90;;
7493;SDS011;3788;49.902;8.590;2023-06-19T09:02:36;4.43;;;4.03;;
7493;SDS011;3788;49.902;8.590;2023-06-19T09:05:11;4.47;;;4.10;;
7493;SDS011;3788;49.902;8.590;2023-06-19T09:07:41;3.97;;;3.60;;
7493;SDS011;3788;49.902;8.590;2023-06-19T09:10:16;4.13;;;3.70;;
7493;SDS011;3788;49.902;8.590;2023-06-19T09:12:44;4.33;;;4.03;;
7493;SDS011;3788;49.902;8.590;2023-06-19T09:15:22;4.00;;;3.70;;
7493;SDS011;3788;49.902;8.590;2023-06-19T09:17:58;4.13;;;3.60;;
7493;SDS011;3788;49.902;8.590;2023-06-19T09:20:27;3.80;;;3.50;;
7493;SDS011;3788;49.902;8.590;2023-06-19T09:22:56;4.60;;;4.20;;
7493;SDS011;3788;49.902;8.590;2023-06-19T09:25:23;4.00;;;3.60;;
7493;SDS011;3788;49.902;8.590;2023-06-19T09:27:54;4.40;;;4.00;;
7493;SDS011;3788;49.902;8.590;2023-06-19T09:30:24;4.37;;;3.97;;
7493;SDS011;3788;49.902;8.590;2023-06-19T09:33:05;4.37;;;3.80;;
7493;SDS011;3788;49.902;8.590;2023-06-19T09:35:33;4.10;;;3.80;;
7493;SDS011;3788;49.902;8.590;2023-06-19T09:38:01;4.60;;;4.20;;
7493;SDS011;3788;49.902;8.590;2023-06-19T09:40:28;4.87;;;4.47;;
7493;SDS011;3788;49.902;8.590;2023-06-19T09:42:56;4.63;;;4.23;;
7493;SDS011;3788;49.902;8.590;2023-06-19T09:45:31;4.40;;;4.00;;
7493;SDS011;3788;49.902;8.590;2023-06-19T09:47:59;4.67;;;4.20;;
7493;SDS011;3788;49.902;8.590;2023-06-19T09:50:26;4.27;;;3.97;;
7493;SDS011;3788;49.902;8.590;2023-06-19T09:52:54;4.17;;;3.87;;
7493;SDS011;3788;49.902;8.590;2023-06-19T09:55:23;4.07;;;3.77;;
7493;SDS011;3788;49.902;8.590;2023-06-19T09:57:53;4.67;;;4.27;;
7493;SDS011;3788;49.902;8.590;2023-06-19T10:00:20;5.80;;;3.90;;
7493;SDS011;3788;49.902;8.590;2023-06-19T10:02:51;4.33;;;4.00;;
7493;SDS011;3788;49.902;8.590;2023-06-19T10:05:27;4.60;;;4.20;;
7493;SDS011;3788;49.902;8.590;2023-06-19T10:07:55;4.17;;;3.80;;
7493;SDS011;3788;49.902;8.590;2023-06-19T10:10:26;4.60;;;3.90;;
7493;SDS011;3788;49.902;8.590;2023-06-19T10:12:54;4.10;;;3.80;;
7493;SDS011;3788;49.902;8.590;2023-06-19T10:15:23;4.30;;;4.00;;
7493;SDS011;3788;49.902;8.590;2023-06-19T10:17:52;4.33;;;3.93;;
7493;SDS011;3788;49.902;8.590;2023-06-19T10:20:26;4.33;;;4.00;;
7493;SDS011;3788;49.902;8.590;2023-06-19T10:22:58;4.47;;;4.07;;
7493;SDS011;3788;49.902;8.590;2023-06-19T10:25:31;4.67;;;4.17;;
7493;SDS011;3788;49.902;8.590;2023-06-19T10:27:58;4.93;;;4.03;;
7493;SDS011;3788;49.902;8.590;2023-06-19T10:30:25;4.90;;;4.50;;
7493;SDS011;3788;49.902;8.590;2023-06-19T10:32:52;4.80;;;4.40;;
7493;SDS011;3788;49.902;8.590;2023-06-19T10:35:19;5.53;;;4.43;;
7493;SDS011;3788;49.902;8.590;2023-06-19T10:37:47;4.73;;;4.33;;
7493;SDS011;3788;49.902;8.590;2023-06-19T10:40:14;4.73;;;4.33;;
7493;SDS011;3788;49.902;8.590;2023-06-19T10:42:42;4.50;;;4.10;;
7493;SDS011;3788;49.902;8.590;2023-06-19T10:45:10;4.40;;;4.10;;
7493;SDS011;3788;49.902;8.590;2023-06-19T10:47:38;6.17;;;4.30;;
7493;SDS011;3788;49.902;8.590;2023-06-19T10:50:09;4.53;;;4.20;;
7493;SDS011;3788;49.902;8.590;2023-06-19T10:52:39;4.57;;;4.17;;
7493;SDS011;3788;49.902;8.590;2023-06-19T10:55:07;4.27;;;3.97;;
7493;SDS011;3788;49.902;8.590;2023-06-19T10:57:35;4.63;;;4.33;;
7493;SDS011;3788;49.902;8.590;2023-06-19T11:00:04;4.20;;;3.90;;
7493;SDS011;3788;49.902;8.590;2023-06-19T11:02:36;4.87;;;4.47;;
7493;SDS011;3788;49.902;8.590;2023-06-19T11:05:04;4.60;;;4.20;;
7493;SDS011;3788;49.902;8.590;2023-06-19T11:07:32;6.43;;;4.10;;
7493;SDS011;3788;49.902;8.590;2023-06-19T11:09:59;4.27;;;3.87;;
7493;SDS011;3788;49.902;8.590;2023-06-19T11:12:25;4.47;;;4.10;;
7493;SDS011;3788;49.902;8.590;2023-06-19T11:14:52;3.90;;;3.60;;
7493;SDS011;3788;49.902;8.590;2023-06-19T11:17:20;4.07;;;3.77;;
7493;SDS011;3788;49.902;8.590;2023-06-19T11:19:49;4.57;;;4.27;;
7493;SDS011;3788;49.902;8.590;2023-06-19T11:22:15;4.10;;;3.80;;
7493;SDS011;3788;49.902;8.590;2023-06-19T11:24:43;4.27;;;3.70;;
7493;SDS011;3788;49.902;8.590;2023-06-19T11:27:16;3.97;;;3.67;;
7493;SDS011;3788;49.902;8.590;2023-06-19T11:29:44;5.13;;;3.80;;
7493;SDS011;3788;49.902;8.590;2023-06-19T11:32:12;3.70;;;3.40;;
7493;SDS011;3788;49.902;8.590;2023-06-19T11:34:42;3.70;;;3.40;;
7493;SDS011;3788;49.902;8.590;2023-06-19T11:37:12;4.23;;;3.90;;
7493;SDS011;3788;49.902;8.590;2023-06-19T11:39:39;3.63;;;3.33;;
7493;SDS011;3788;49.902;8.590;2023-06-19T11:42:06;4.67;;;3.47;;
7493;SDS011;3788;49.902;8.590;2023-06-19T11:44:34;3.03;;;2.83;;
7493;SDS011;3788;49.902;8.590;2023-06-19T11:47:01;3.77;;;3.07;;
7493;SDS011;3788;49.902;8.590;2023-06-19T11:49:28;3.67;;;3.37;;
7493;SDS011;3788;49.902;8.590;2023-06-19T11:52:02;4.17;;;3.03;;
7493;SDS011;3788;49.902;8.590;2023-06-19T11:54:29;3.27;;;3.07;;
7493;SDS011;3788;49.902;8.590;2023-06-19T11:56:56;3.33;;;3.13;;
7493;SDS011;3788;49.902;8.590;2023-06-19T11:59:23;3.40;;;3.20;;
7493;SDS011;3788;49.902;8.590;2023-06-19T12:01:50;3.13;;;2.93;;
7493;SDS011;3788;49.902;8.590;2023-06-19T12:04:17;3.70;;;3.40;;
7493;SDS011;3788;49.902;8.590;2023-06-19T12:06:43;3.10;;;2.90;;
7493;SDS011;3788;49.902;8.590;2023-06-19T12:09:11;3.60;;;3.40;;
7493;SDS011;3788;49.902;8.590;2023-06-19T12:11:38;3.33;;;3.10;;
7493;SDS011;3788;49.902;8.590;2023-06-19T12:14:04;3.53;;;3.23;;
7493;SDS011;3788;49.902;8.590;2023-06-19T12:16:31;3.40;;;3.07;;
7493;SDS011;3788;49.902;8.590;2023-06-19T12:18:58;3.47;;;3.17;;
7493;SDS011;3788;49.902;8.590;2023-06-19T12:21:25;3.47;;;3.17;;
7493;SDS011;3788;49.902;8.590;2023-06-19T12:23:51;3.60;;;3.30;;
7493;SDS011;3788;49.902;8.590;2023-06-19T12:26:20;3.10;;;2.90;;
7493;SDS011;3788;49.902;8.590;2023-06-19T12:28:49;3.63;;;3.33;;
7493;SDS011;3788;49.902;8.590;2023-06-19T12:31:17;3.67;;;3.37;;
7493;SDS011;3788;49.902;8.590;2023-06-19T12:33:43;4.13;;;3.83;;
7493;SDS011;3788;49.902;8.590;2023-06-19T12:36:12;3.57;;;3.27;;
7493;SDS011;3788;49.902;8.590;2023-06-19T12:38:39;3.90;;;3.60;;
7493;SDS011;3788;49.902;8.590;2023-06-19T12:41:06;3.67;;;3.47;;
7493;SDS011;3788;49.902;8.590;2023-06-19T12:43:34;4.43;;;3.97;;
7493;SDS011;3788;49.902;8.590;2023-06-19T12:46:00;3.93;;;3.57;;
7493;SDS011;3788;49.902;8.590;2023-06-19T12:48:27;4.33;;;3.93;;
7493;SDS011;3788;49.902;8.590;2023-06-19T12:50:54;3.90;;;3.60;;
7493;SDS011;3788;49.902;8.590;2023-06-19T12:53:21;3.90;;;3.60;;
7493;SDS011;3788;49.902;8.590;2023-06-19T12:55:51;4.33;;;4.03;;
7493;SDS011;3788;49.902;8.590;2023-06-19T12:58:18;5.40;;;4.13;;
7493;SDS011;3788;49.902;8.590;2023-06-19T13:00:46;3.40;;;3.20;;
7493;SDS011;3788;49.902;8.590;2023-06-19T13:03:12;3.50;;;3.20;;
7493;SDS011;3788;49.902;8.590;2023-06-19T13:05:39;3.00;;;2.80;;
7493;SDS011;3788;49.902;8.590;2023-06-19T13:08:06;3.17;;;2.90;;
7493;SDS011;3788;49.902;8.590;2023-06-19T13:10:33;3.53;;;3.30;;
7493;SDS011;3788;49.902;8.590;2023-06-19T13:12:59;3.77;;;3.47;;
7493;SDS011;3788;49.902;8.590;2023-06-19T13:15:26;3.60;;;3.30;;
7493;SDS011;3788;49.902;8.590;2023-06-19T13:17:54;3.33;;;3.13;;
7493;SDS011;3788;49.902;8.590;2023-06-19T13:20:21;3.43;;;3.23;;
7493;SDS011;3788;49.902;8.590;2023-06-19T13:22:47;3.63;;;3.33;;
7493;SDS011;3788;49.902;8.590;2023-06-19T13:25:14;3.63;;;3.33;;
7493;SDS011;3788;49.902;8.590;2023-06-19T13:27:41;3.67;;;3.47;;
7493;SDS011;3788;49.902;8.590;2023-06-19T13:30:08;3.40;;;3.10;;
7493;SDS011;3788;49.902;8.590;2023-06-19T13:32:35;2.93;;;2.73;;
7493;SDS011;3788;49.902;8.590;2023-06-19T13:35:04;3.93;;;2.80;;
7493;SDS011;3788;49.902;8.590;2023-06-19T13:37:33;3.33;;;3.03;;
7493;SDS011;3788;49.902;8.590;2023-06-19T13:40:00;3.23;;;2.93;;
7493;SDS011;3788;49.902;8.590;2023-06-19T13:42:28;3.30;;;2.97;;
7493;SDS011;3788;49.902;8.590;2023-06-19T13:44:55;3.20;;;3.00;;
7493;SDS011;3788;49.902;8.590;2023-06-19T13:47:22;2.90;;;2.70;;
7493;SDS011;3788;49.902;8.590;2023-06-19T13:49:50;2.70;;;2.50;;
7493;SDS011;3788;49.902;8.590;2023-06-19T13:52:18;2.97;;;2.77;;
7493;SDS011;3788;49.902;8.590;2023-06-19T13:54:45;2.80;;;2.60;;
7493;SDS011;3788;49.902;8.590;2023-06-19T13:57:12;3.73;;;3.43;;
7493;SDS011;3788;49.902;8.590;2023-06-19T13:59:38;3.50;;;3.20;;
7493;SDS011;3788;49.902;8.590;2023-06-19T14:02:06;3.63;;;3.27;;
7493;SDS011;3788;49.902;8.590;2023-06-19T14:04:33;3.43;;;3.23;;
7493;SDS011;3788;49.902;8.590;2023-06-19T14:06:59;3.90;;;3.60;;
7493;SDS011;3788;49.902;8.590;2023-06-19T14:09:27;3.33;;;3.13;;
7493;SDS011;3788;49.902;8.590;2023-06-19T14:11:54;3.00;;;2.80;;
7493;SDS011;3788;49.902;8.590;2023-06-19T14:14:21;3.20;;;2.90;;
7493;SDS011;3788;49.902;8.590;2023-06-19T14:16:48;3.60;;;3.13;;
7493;SDS011;3788;49.902;8.590;2023-06-19T14:19:14;2.83;;;2.63;;
7493;SDS011;3788;49.902;8.590;2023-06-19T14:21:42;2.80;;;2.60;;
7493;SDS011;3788;49.902;8.590;2023-06-19T14:24:09;2.57;;;2.37;;
7493;SDS011;3788;49.902;8.590;2023-06-19T14:26:37;2.60;;;2.40;;
7493;SDS011;3788;49.902;8.590;2023-06-19T14:29:04;3.13;;;2.93;;
7493;SDS011;3788;49.902;8.590;2023-06-19T14:31:33;2.60;;;2.40;;
7493;SDS011;3788;49.902;8.590;2023-06-19T14:33:59;3.17;;;2.70;;
7493;SDS011;3788;49.902;8.590;2023-06-19T14:36:27;3.10;;;2.90;;
7493;SDS011;3788;49.902;8.590;2023-06-19T14:38:56;3.67;;;2.80;;
7493;SDS011;3788;49.902;8.590;2023-06-19T14:41:30;3.40;;;3.10;;
7493;SDS011;3788;49.902;8.590;2023-06-19T14:43:59;3.00;;;2.80;;
7493;SDS011;3788;49.902;8.590;2023-06-19T14:46:26;3.10;;;2.90;;
7493;SDS011;3788;49.902;8.590;2023-06-19T14:48:52;2.90;;;2.60;;
7493;SDS011;3788;49.902;8.590;2023-06-19T14:51:19;3.20;;;2.73;;
7493;SDS011;3788;49.902;8.590;2023-06-19T14:53:45;2.40;;;2.30;;
7493;SDS011;3788;49.902;8.590;2023-06-19T14:56:12;2.63;;;2.43;;
7493;SDS011;3788;49.902;8.590;2023-06-19T14:58:39;2.83;;;2.63;;
7493;SDS011;3788;49.902;8.590;2023-06-19T15:01:07;2.90;;;2.70;;
7493;SDS011;3788;49.902;8.590;2023-06-19T15:03:34;3.77;;;2.80;;
7493;SDS011;3788;49.902;8.590;2023-06-19T15:06:02;3.47;;;3.23;;
7493;SDS011;3788;49.902;8.590;2023-06-19T15:08:29;3.37;;;2.73;;
7493;SDS011;3788;49.902;8.590;2023-06-19T15:10:56;3.13;;;2.93;;
7493;SDS011;3788;49.902;8.590;2023-06-19T15:13:23;5.53;;;3.50;;
7493;SDS011;3788;49.902;8.590;2023-06-19T15:15:50;5.10;;;3.80;;
7493;SDS011;3788;49.902;8.590;2023-06-19T15:18:18;7.83;;;4.57;;